sensor_id;sensor_type;location;lat;lon;timestamp;P1;durP1;ratioP1;P2;durP2;ratioP2
53618;SDS011;68717;53.040;18.488;2023-09-19T00:00:05;19.25;;;13.70;;
53618;SDS011;68717;53.040;18.488;2023-09-19T00:00:25;19.13;;;13.15;;
53618;SDS011;68717;53.040;18.488;2023-09-19T00:00:59;19.65;;;13.50;;
53618;SDS011;68717;53.040;18.488;2023-09-19T00:01:23;17.58;;;13.45;;
53618;SDS011;68717;53.040;18.488;2023-09-19T00:01:36;17.42;;;13.38;;
53618;SDS011;68717;53.040;18.488;2023-09-19T00:01:49;17.45;;;13.10;;
53618;SDS011;68717;53.040;18.488;2023-09-19T00:02:02;18.95;;;13.52;;
53618;SDS011;68717;53.040;18.488;2023-09-19T00:02:17;19.80;;;14.00;;
53618;SDS011;68717;53.040;18.488;2023-09-19T00:02:30;19.60;;;14.02;;
53618;SDS011;68717;53.040;18.488;2023-09-19T00:02:45;18.65;;;13.68;;
53618;SDS011;68717;53.040;18.488;2023-09-19T00:02:59;18.67;;;13.82;;
53618;SDS011;68717;53.040;18.488;2023-09-19T00:03:12;20.55;;;13.73;;
53618;SDS011;68717;53.040;18.488;2023-09-19T00:03:25;21.58;;;13.75;;
53618;SDS011;68717;53.040;18.488;2023-09-19T00:03:38;18.92;;;13.60;;
53618;SDS011;68717;53.040;18.488;2023-09-19T00:03:52;17.95;;;13.82;;
53618;SDS011;68717;53.040;18.488;2023-09-19T00:04:05;18.17;;;14.10;;
53618;SDS011;68717;53.040;18.488;2023-09-19T00:04:22;19.52;;;14.18;;
53618;SDS011;68717;53.040;18.488;2023-09-19T00:04:41;19.40;;;14.32;;
53618;SDS011;68717;53.040;18.488;2023-09-19T00:04:55;19.90;;;14.38;;
53618;SDS011;68717;53.040;18.488;2023-09-19T00:05:08;20.55;;;14.25;;
53618;SDS011;68717;53.040;18.488;2023-09-19T00:05:21;18.95;;;13.98;;
53618;SDS011;68717;53.040;18.488;2023-09-19T00:05:36;17.85;;;13.73;;
53618;SDS011;68717;53.040;18.488;2023-09-19T00:05:50;17.65;;;13.55;;
53618;SDS011;68717;53.040;18.488;2023-09-19T00:06:03;17.13;;;13.45;;
53618;SDS011;68717;53.040;18.488;2023-09-19T00:06:19;17.67;;;13.63;;
53618;SDS011;68717;53.040;18.488;2023-09-19T00:06:32;17.60;;;13.57;;
53618;SDS011;68717;53.040;18.488;2023-09-19T00:06:45;18.58;;;13.90;;
53618;SDS011;68717;53.040;18.488;2023-09-19T00:06:59;19.70;;;14.18;;
53618;SDS011;68717;53.040;18.488;2023-09-19T00:07:14;19.38;;;14.05;;
53618;SDS011;68717;53.040;18.488;2023-09-19T00:07:28;18.88;;;14.02;;
53618;SDS011;68717;53.040;18.488;2023-09-19T00:07:41;20.42;;;14.10;;
53618;SDS011;68717;53.040;18.488;2023-09-19T00:07:53;19.30;;;13.95;;
53618;SDS011;68717;53.040;18.488;2023-09-19T00:08:07;18.63;;;13.68;;
53618;SDS011;68717;53.040;18.488;2023-09-19T00:08:20;18.98;;;14.02;;
53618;SDS011;68717;53.040;18.488;2023-09-19T00:08:36;19.13;;;14.23;;
53618;SDS011;68717;53.040;18.488;2023-09-19T00:08:49;18.42;;;14.00;;
53618;SDS011;68717;53.040;18.488;2023-09-19T00:09:02;19.73;;;14.25;;
53618;SDS011;68717;53.040;18.488;2023-09-19T00:09:15;19.45;;;13.85;;
53618;SDS011;68717;53.040;18.488;2023-09-19T00:09:28;19.23;;;13.63;;
53618;SDS011;68717;53.040;18.488;2023-09-19T00:09:41;19.30;;;13.80;;
53618;SDS011;68717;53.040;18.488;2023-09-19T00:09:57;18.45;;;13.65;;
53618;SDS011;68717;53.040;18.488;2023-09-19T00:10:10;17.48;;;13.52;;
53618;SDS011;68717;53.040;18.488;2023-09-19T00:10:23;17.50;;;13.32;;
53618;SDS011;68717;53.040;18.488;2023-09-19T00:10:39;19.35;;;13.10;;
53618;SDS011;68717;53.040;18.488;2023-09-19T00:10:53;20.15;;;13.30;;
53618;SDS011;68717;53.040;18.488;2023-09-19T00:11:07;18.92;;;13.55;;
53618;SDS011;68717;53.040;18.488;2023-09-19T00:11:20;20.58;;;14.05;;
53618;SDS011;68717;53.040;18.488;2023-09-19T00:11:32;21.40;;;14.18;;
53618;SDS011;68717;53.040;18.488;2023-09-19T00:11:46;21.55;;;13.90;;
53618;SDS011;68717;53.040;18.488;2023-09-19T00:12:02;19.77;;;14.00;;
53618;SDS011;68717;53.040;18.488;2023-09-19T00:12:15;19.65;;;13.93;;
53618;SDS011;68717;53.040;18.488;2023-09-19T00:12:30;19.15;;;13.80;;
53618;SDS011;68717;53.040;18.488;2023-09-19T00:12:44;19.98;;;13.82;;
53618;SDS011;68717;53.040;18.488;2023-09-19T00:12:57;19.25;;;13.63;;
53618;SDS011;68717;53.040;18.488;2023-09-19T00:13:11;20.05;;;14.02;;
53618;SDS011;68717;53.040;18.488;2023-09-19T00:13:27;20.23;;;14.00;;
53618;SDS011;68717;53.040;18.488;2023-09-19T00:13:41;18.80;;;13.75;;
53618;SDS011;68717;53.040;18.488;2023-09-19T00:13:54;18.90;;;14.18;;
53618;SDS011;68717;53.040;18.488;2023-09-19T00:14:06;19.88;;;14.27;;
53618;SDS011;68717;53.040;18.488;2023-09-19T00:14:21;19.00;;;13.82;;
53618;SDS011;68717;53.040;18.488;2023-09-19T00:14:37;17.80;;;13.60;;
53618;SDS011;68717;53.040;18.488;2023-09-19T00:14:51;18.05;;;13.38;;
53618;SDS011;68717;53.040;18.488;2023-09-19T00:15:05;18.40;;;13.40;;
53618;SDS011;68717;53.040;18.488;2023-09-19T00:15:18;19.13;;;13.82;;
53618;SDS011;68717;53.040;18.488;2023-09-19T00:15:35;18.58;;;13.88;;
53618;SDS011;68717;53.040;18.488;2023-09-19T00:15:49;18.10;;;13.80;;
53618;SDS011;68717;53.040;18.488;2023-09-19T00:16:07;17.83;;;13.73;;
53618;SDS011;68717;53.040;18.488;2023-09-19T00:16:21;18.10;;;13.55;;
53618;SDS011;68717;53.040;18.488;2023-09-19T00:16:33;18.63;;;13.93;;
53618;SDS011;68717;53.040;18.488;2023-09-19T00:16:48;18.20;;;14.13;;
53618;SDS011;68717;53.040;18.488;2023-09-19T00:17:02;18.63;;;13.70;;
53618;SDS011;68717;53.040;18.488;2023-09-19T00:17:19;19.05;;;13.75;;
53618;SDS011;68717;53.040;18.488;2023-09-19T00:17:33;17.33;;;13.63;;
53618;SDS011;68717;53.040;18.488;2023-09-19T00:17:47;16.83;;;13.43;;
53618;SDS011;68717;53.040;18.488;2023-09-19T00:18:00;17.63;;;13.27;;
53618;SDS011;68717;53.040;18.488;2023-09-19T00:18:12;18.95;;;13.65;;
53618;SDS011;68717;53.040;18.488;2023-09-19T00:18:27;20.00;;;14.32;;
53618;SDS011;68717;53.040;18.488;2023-09-19T00:18:41;20.65;;;14.35;;
53618;SDS011;68717;53.040;18.488;2023-09-19T00:18:55;20.08;;;14.02;;
53618;SDS011;68717;53.040;18.488;2023-09-19T00:19:07;20.75;;;14.13;;
53618;SDS011;68717;53.040;18.488;2023-09-19T00:19:21;20.80;;;13.98;;
53618;SDS011;68717;53.040;18.488;2023-09-19T00:19:33;19.52;;;13.63;;
53618;SDS011;68717;53.040;18.488;2023-09-19T00:19:46;19.70;;;13.50;;
53618;SDS011;68717;53.040;18.488;2023-09-19T00:20:04;19.65;;;13.85;;
53618;SDS011;68717;53.040;18.488;2023-09-19T00:20:20;19.85;;;14.20;;
53618;SDS011;68717;53.040;18.488;2023-09-19T00:20:35;20.08;;;14.45;;
53618;SDS011;68717;53.040;18.488;2023-09-19T00:20:48;20.02;;;14.43;;
53618;SDS011;68717;53.040;18.488;2023-09-19T00:21:01;20.48;;;14.48;;
53618;SDS011;68717;53.040;18.488;2023-09-19T00:21:16;19.45;;;14.30;;
53618;SDS011;68717;53.040;18.488;2023-09-19T00:21:31;19.25;;;14.13;;
53618;SDS011;68717;53.040;18.488;2023-09-19T00:21:44;19.88;;;14.43;;
53618;SDS011;68717;53.040;18.488;2023-09-19T00:21:58;21.33;;;14.75;;
53618;SDS011;68717;53.040;18.488;2023-09-19T00:22:10;21.52;;;14.52;;
53618;SDS011;68717;53.040;18.488;2023-09-19T00:22:25;18.60;;;13.65;;
53618;SDS011;68717;53.040;18.488;2023-09-19T00:22:39;19.00;;;13.63;;
53618;SDS011;68717;53.040;18.488;2023-09-19T00:22:52;20.38;;;14.18;;
53618;SDS011;68717;53.040;18.488;2023-09-19T00:23:05;19.67;;;14.20;;
53618;SDS011;68717;53.040;18.488;2023-09-19T00:23:18;19.17;;;14.18;;
53618;SDS011;68717;53.040;18.488;2023-09-19T00:23:31;19.50;;;14.25;;
53618;SDS011;68717;53.040;18.488;2023-09-19T00:23:45;19.60;;;14.20;;
53618;SDS011;68717;53.040;18.488;2023-09-19T00:23:57;19.75;;;13.77;;
53618;SDS011;68717;53.040;18.488;2023-09-19T00:24:11;19.70;;;13.50;;
53618;SDS011;68717;53.040;18.488;2023-09-19T00:24:25;19.10;;;13.77;;
53618;SDS011;68717;53.040;18.488;2023-09-19T00:24:37;19.90;;;14.13;;
53618;SDS011;68717;53.040;18.488;2023-09-19T00:24:50;19.67;;;13.90;;
53618;SDS011;68717;53.040;18.488;2023-09-19T00:25:05;19.08;;;13.88;;
53618;SDS011;68717;53.040;18.488;2023-09-19T00:25:18;19.17;;;14.20;;
53618;SDS011;68717;53.040;18.488;2023-09-19T00:25:32;20.27;;;14.35;;
53618;SDS011;68717;53.040;18.488;2023-09-19T00:25:45;22.58;;;14.40;;
53618;SDS011;68717;53.040;18.488;2023-09-19T00:25:59;22.42;;;13.95;;
53618;SDS011;68717;53.040;18.488;2023-09-19T00:26:13;19.95;;;14.05;;
53618;SDS011;68717;53.040;18.488;2023-09-19T00:26:26;18.92;;;13.98;;
53618;SDS011;68717;53.040;18.488;2023-09-19T00:26:42;18.63;;;13.68;;
53618;SDS011;68717;53.040;18.488;2023-09-19T00:26:55;18.73;;;13.90;;
53618;SDS011;68717;53.040;18.488;2023-09-19T00:27:10;20.30;;;13.90;;
53618;SDS011;68717;53.040;18.488;2023-09-19T00:27:23;21.73;;;14.02;;
53618;SDS011;68717;53.040;18.488;2023-09-19T00:27:36;21.92;;;14.43;;
53618;SDS011;68717;53.040;18.488;2023-09-19T00:27:54;22.70;;;14.23;;
53618;SDS011;68717;53.040;18.488;2023-09-19T00:28:07;22.38;;;14.20;;
53618;SDS011;68717;53.040;18.488;2023-09-19T00:28:20;20.42;;;14.27;;
53618;SDS011;68717;53.040;18.488;2023-09-19T00:28:33;18.27;;;13.98;;
53618;SDS011;68717;53.040;18.488;2023-09-19T00:28:47;18.70;;;13.95;;
53618;SDS011;68717;53.040;18.488;2023-09-19T00:29:00;19.80;;;14.05;;
53618;SDS011;68717;53.040;18.488;2023-09-19T00:29:20;18.27;;;13.77;;
53618;SDS011;68717;53.040;18.488;2023-09-19T00:29:33;18.38;;;13.93;;
53618;SDS011;68717;53.040;18.488;2023-09-19T00:29:46;19.48;;;14.25;;
53618;SDS011;68717;53.040;18.488;2023-09-19T00:29:59;20.55;;;14.63;;
53618;SDS011;68717;53.040;18.488;2023-09-19T00:30:12;19.90;;;14.30;;
53618;SDS011;68717;53.040;18.488;2023-09-19T00:30:28;18.73;;;13.55;;
53618;SDS011;68717;53.040;18.488;2023-09-19T00:30:42;20.55;;;14.05;;
53618;SDS011;68717;53.040;18.488;2023-09-19T00:30:54;20.45;;;14.23;;
53618;SDS011;68717;53.040;18.488;2023-09-19T00:31:08;18.73;;;13.77;;
53618;SDS011;68717;53.040;18.488;2023-09-19T00:31:21;18.40;;;13.57;;
53618;SDS011;68717;53.040;18.488;2023-09-19T00:31:37;20.45;;;13.85;;
53618;SDS011;68717;53.040;18.488;2023-09-19T00:31:50;20.83;;;14.10;;
53618;SDS011;68717;53.040;18.488;2023-09-19T00:32:03;20.58;;;14.00;;
53618;SDS011;68717;53.040;18.488;2023-09-19T00:32:17;21.30;;;13.95;;
53618;SDS011;68717;53.040;18.488;2023-09-19T00:32:30;20.27;;;13.93;;
53618;SDS011;68717;53.040;18.488;2023-09-19T00:32:42;19.33;;;13.85;;
53618;SDS011;68717;53.040;18.488;2023-09-19T00:32:59;19.48;;;14.18;;
53618;SDS011;68717;53.040;18.488;2023-09-19T00:33:13;20.77;;;14.52;;
53618;SDS011;68717;53.040;18.488;2023-09-19T00:33:28;22.52;;;14.35;;
53618;SDS011;68717;53.040;18.488;2023-09-19T00:33:41;21.60;;;14.27;;
53618;SDS011;68717;53.040;18.488;2023-09-19T00:33:54;22.40;;;14.35;;
53618;SDS011;68717;53.040;18.488;2023-09-19T00:34:09;21.10;;;14.15;;
53618;SDS011;68717;53.040;18.488;2023-09-19T00:34:22;18.85;;;14.02;;
53618;SDS011;68717;53.040;18.488;2023-09-19T00:34:35;18.45;;;13.98;;
53618;SDS011;68717;53.040;18.488;2023-09-19T00:34:48;18.15;;;13.75;;
53618;SDS011;68717;53.040;18.488;2023-09-19T00:35:01;19.33;;;13.88;;
53618;SDS011;68717;53.040;18.488;2023-09-19T00:35:15;20.07;;;14.20;;
53618;SDS011;68717;53.040;18.488;2023-09-19T00:35:28;19.95;;;14.27;;
53618;SDS011;68717;53.040;18.488;2023-09-19T00:35:46;20.45;;;14.30;;
53618;SDS011;68717;53.040;18.488;2023-09-19T00:35:59;20.55;;;14.32;;
53618;SDS011;68717;53.040;18.488;2023-09-19T00:36:14;19.83;;;14.18;;
53618;SDS011;68717;53.040;18.488;2023-09-19T00:36:26;19.30;;;13.93;;
53618;SDS011;68717;53.040;18.488;2023-09-19T00:36:40;20.92;;;14.38;;
53618;SDS011;68717;53.040;18.488;2023-09-19T00:36:52;20.40;;;14.23;;
53618;SDS011;68717;53.040;18.488;2023-09-19T00:37:05;19.90;;;14.43;;
53618;SDS011;68717;53.040;18.488;2023-09-19T00:37:19;18.58;;;14.23;;
53618;SDS011;68717;53.040;18.488;2023-09-19T00:37:31;18.73;;;13.88;;
53618;SDS011;68717;53.040;18.488;2023-09-19T00:37:44;20.02;;;13.95;;
53618;SDS011;68717;53.040;18.488;2023-09-19T00:37:57;19.83;;;13.75;;
53618;SDS011;68717;53.040;18.488;2023-09-19T00:38:10;20.33;;;13.98;;
53618;SDS011;68717;53.040;18.488;2023-09-19T00:38:24;20.50;;;14.50;;
53618;SDS011;68717;53.040;18.488;2023-09-19T00:38:39;20.70;;;14.88;;
53618;SDS011;68717;53.040;18.488;2023-09-19T00:38:53;20.70;;;14.25;;
53618;SDS011;68717;53.040;18.488;2023-09-19T00:39:05;20.60;;;13.73;;
53618;SDS011;68717;53.040;18.488;2023-09-19T00:39:20;22.02;;;14.10;;
53618;SDS011;68717;53.040;18.488;2023-09-19T00:39:34;21.02;;;13.95;;
53618;SDS011;68717;53.040;18.488;2023-09-19T00:39:46;20.77;;;14.30;;
53618;SDS011;68717;53.040;18.488;2023-09-19T00:39:59;20.27;;;14.57;;
53618;SDS011;68717;53.040;18.488;2023-09-19T00:40:13;20.08;;;14.55;;
53618;SDS011;68717;53.040;18.488;2023-09-19T00:40:27;20.73;;;14.77;;
53618;SDS011;68717;53.040;18.488;2023-09-19T00:40:43;21.58;;;14.68;;
53618;SDS011;68717;53.040;18.488;2023-09-19T00:40:56;20.00;;;14.48;;
53618;SDS011;68717;53.040;18.488;2023-09-19T00:41:12;19.95;;;14.60;;
53618;SDS011;68717;53.040;18.488;2023-09-19T00:41:24;20.58;;;14.40;;
53618;SDS011;68717;53.040;18.488;2023-09-19T00:41:38;20.60;;;14.48;;
53618;SDS011;68717;53.040;18.488;2023-09-19T00:41:50;18.75;;;14.65;;
53618;SDS011;68717;53.040;18.488;2023-09-19T00:42:03;18.33;;;14.25;;
53618;SDS011;68717;53.040;18.488;2023-09-19T00:42:17;20.85;;;14.45;;
53618;SDS011;68717;53.040;18.488;2023-09-19T00:42:32;20.33;;;14.27;;
53618;SDS011;68717;53.040;18.488;2023-09-19T00:42:50;18.80;;;14.07;;
53618;SDS011;68717;53.040;18.488;2023-09-19T00:43:02;19.63;;;14.32;;
53618;SDS011;68717;53.040;18.488;2023-09-19T00:43:15;19.98;;;14.15;;
53618;SDS011;68717;53.040;18.488;2023-09-19T00:43:28;22.13;;;14.23;;
53618;SDS011;68717;53.040;18.488;2023-09-19T00:43:41;22.23;;;14.35;;
53618;SDS011;68717;53.040;18.488;2023-09-19T00:43:54;20.25;;;13.98;;
53618;SDS011;68717;53.040;18.488;2023-09-19T00:44:07;22.45;;;14.25;;
53618;SDS011;68717;53.040;18.488;2023-09-19T00:44:22;21.63;;;14.32;;
53618;SDS011;68717;53.040;18.488;2023-09-19T00:44:35;19.85;;;14.48;;
53618;SDS011;68717;53.040;18.488;2023-09-19T00:44:49;20.75;;;14.52;;
53618;SDS011;68717;53.040;18.488;2023-09-19T00:45:17;19.60;;;14.18;;
53618;SDS011;68717;53.040;18.488;2023-09-19T00:45:30;18.77;;;13.73;;
53618;SDS011;68717;53.040;18.488;2023-09-19T00:45:49;18.90;;;13.77;;
53618;SDS011;68717;53.040;18.488;2023-09-19T00:46:05;20.15;;;14.45;;
53618;SDS011;68717;53.040;18.488;2023-09-19T00:46:20;20.75;;;14.90;;
53618;SDS011;68717;53.040;18.488;2023-09-19T00:46:34;19.37;;;14.57;;
53618;SDS011;68717;53.040;18.488;2023-09-19T00:46:46;19.52;;;14.07;;
53618;SDS011;68717;53.040;18.488;2023-09-19T00:47:02;20.98;;;14.10;;
53618;SDS011;68717;53.040;18.488;2023-09-19T00:47:15;19.75;;;14.02;;
53618;SDS011;68717;53.040;18.488;2023-09-19T00:47:30;18.20;;;13.90;;
53618;SDS011;68717;53.040;18.488;2023-09-19T00:47:43;20.75;;;14.07;;
53618;SDS011;68717;53.040;18.488;2023-09-19T00:47:59;21.83;;;14.30;;
53618;SDS011;68717;53.040;18.488;2023-09-19T00:48:16;18.88;;;14.30;;
53618;SDS011;68717;53.040;18.488;2023-09-19T00:48:30;19.40;;;14.75;;
53618;SDS011;68717;53.040;18.488;2023-09-19T00:48:44;19.50;;;14.48;;
53618;SDS011;68717;53.040;18.488;2023-09-19T00:48:58;18.67;;;13.77;;
53618;SDS011;68717;53.040;18.488;2023-09-19T00:49:11;18.80;;;14.10;;
53618;SDS011;68717;53.040;18.488;2023-09-19T00:49:25;18.67;;;13.95;;
53618;SDS011;68717;53.040;18.488;2023-09-19T00:49:37;20.10;;;14.45;;
53618;SDS011;68717;53.040;18.488;2023-09-19T00:49:51;20.27;;;14.50;;
53618;SDS011;68717;53.040;18.488;2023-09-19T00:50:05;20.40;;;14.27;;
53618;SDS011;68717;53.040;18.488;2023-09-19T00:50:21;20.73;;;14.02;;
53618;SDS011;68717;53.040;18.488;2023-09-19T00:50:36;19.17;;;13.95;;
53618;SDS011;68717;53.040;18.488;2023-09-19T00:50:49;18.80;;;14.50;;
53618;SDS011;68717;53.040;18.488;2023-09-19T00:51:02;19.67;;;14.77;;
53618;SDS011;68717;53.040;18.488;2023-09-19T00:51:17;20.30;;;14.38;;
53618;SDS011;68717;53.040;18.488;2023-09-19T00:51:31;19.02;;;14.20;;
53618;SDS011;68717;53.040;18.488;2023-09-19T00:51:44;18.80;;;14.10;;
53618;SDS011;68717;53.040;18.488;2023-09-19T00:51:59;18.42;;;13.73;;
53618;SDS011;68717;53.040;18.488;2023-09-19T00:52:12;18.85;;;13.90;;
53618;SDS011;68717;53.040;18.488;2023-09-19T00:52:24;18.38;;;14.13;;
53618;SDS011;68717;53.040;18.488;2023-09-19T00:52:39;18.17;;;14.20;;
53618;SDS011;68717;53.040;18.488;2023-09-19T00:52:54;21.25;;;14.25;;
53618;SDS011;68717;53.040;18.488;2023-09-19T00:53:08;24.13;;;14.55;;
53618;SDS011;68717;53.040;18.488;2023-09-19T00:53:23;22.98;;;14.70;;
53618;SDS011;68717;53.040;18.488;2023-09-19T00:53:37;21.33;;;14.93;;
53618;SDS011;68717;53.040;18.488;2023-09-19T00:53:52;24.13;;;15.10;;
53618;SDS011;68717;53.040;18.488;2023-09-19T00:54:05;25.40;;;15.10;;
53618;SDS011;68717;53.040;18.488;2023-09-19T00:54:19;22.75;;;14.55;;
53618;SDS011;68717;53.040;18.488;2023-09-19T00:54:33;21.13;;;14.50;;
53618;SDS011;68717;53.040;18.488;2023-09-19T00:54:47;19.27;;;14.57;;
53618;SDS011;68717;53.040;18.488;2023-09-19T00:55:00;19.35;;;14.57;;
53618;SDS011;68717;53.040;18.488;2023-09-19T00:55:16;19.10;;;14.48;;
53618;SDS011;68717;53.040;18.488;2023-09-19T00:55:32;20.08;;;14.57;;
53618;SDS011;68717;53.040;18.488;2023-09-19T00:55:45;20.42;;;14.90;;
53618;SDS011;68717;53.040;18.488;2023-09-19T00:55:58;20.15;;;14.82;;
53618;SDS011;68717;53.040;18.488;2023-09-19T00:56:12;19.77;;;14.95;;
53618;SDS011;68717;53.040;18.488;2023-09-19T00:56:26;20.75;;;15.27;;
53618;SDS011;68717;53.040;18.488;2023-09-19T00:56:38;22.60;;;15.57;;
53618;SDS011;68717;53.040;18.488;2023-09-19T00:56:52;22.65;;;14.88;;
53618;SDS011;68717;53.040;18.488;2023-09-19T00:57:06;21.70;;;14.27;;
53618;SDS011;68717;53.040;18.488;2023-09-19T00:57:20;20.77;;;14.60;;
53618;SDS011;68717;53.040;18.488;2023-09-19T00:57:34;21.70;;;14.77;;
53618;SDS011;68717;53.040;18.488;2023-09-19T00:57:50;21.65;;;14.68;;
53618;SDS011;68717;53.040;18.488;2023-09-19T00:58:05;21.13;;;14.95;;
53618;SDS011;68717;53.040;18.488;2023-09-19T00:58:18;21.05;;;15.10;;
53618;SDS011;68717;53.040;18.488;2023-09-19T00:58:32;19.67;;;15.07;;
53618;SDS011;68717;53.040;18.488;2023-09-19T00:58:47;19.45;;;14.98;;
53618;SDS011;68717;53.040;18.488;2023-09-19T00:59:01;20.20;;;14.85;;
53618;SDS011;68717;53.040;18.488;2023-09-19T00:59:13;20.58;;;14.75;;
53618;SDS011;68717;53.040;18.488;2023-09-19T00:59:26;20.92;;;14.60;;
53618;SDS011;68717;53.040;18.488;2023-09-19T00:59:39;21.42;;;14.50;;
53618;SDS011;68717;53.040;18.488;2023-09-19T00:59:52;19.77;;;14.32;;
53618;SDS011;68717;53.040;18.488;2023-09-19T01:00:08;19.52;;;14.57;;
53618;SDS011;68717;53.040;18.488;2023-09-19T01:00:24;22.15;;;14.35;;
53618;SDS011;68717;53.040;18.488;2023-09-19T01:00:37;22.17;;;14.38;;
53618;SDS011;68717;53.040;18.488;2023-09-19T01:00:50;23.40;;;14.93;;
53618;SDS011;68717;53.040;18.488;2023-09-19T01:01:03;24.35;;;15.35;;
53618;SDS011;68717;53.040;18.488;2023-09-19T01:01:19;21.98;;;14.75;;
53618;SDS011;68717;53.040;18.488;2023-09-19T01:01:33;21.52;;;14.55;;
53618;SDS011;68717;53.040;18.488;2023-09-19T01:01:45;22.10;;;14.93;;
53618;SDS011;68717;53.040;18.488;2023-09-19T01:02:01;21.05;;;15.10;;
53618;SDS011;68717;53.040;18.488;2023-09-19T01:02:16;21.25;;;14.80;;
53618;SDS011;68717;53.040;18.488;2023-09-19T01:02:29;22.35;;;14.65;;
53618;SDS011;68717;53.040;18.488;2023-09-19T01:02:42;20.98;;;14.57;;
53618;SDS011;68717;53.040;18.488;2023-09-19T01:02:56;18.98;;;14.70;;
53618;SDS011;68717;53.040;18.488;2023-09-19T01:03:08;20.27;;;15.13;;
53618;SDS011;68717;53.040;18.488;2023-09-19T01:03:22;23.00;;;15.18;;
53618;SDS011;68717;53.040;18.488;2023-09-19T01:03:36;23.23;;;14.98;;
53618;SDS011;68717;53.040;18.488;2023-09-19T01:03:50;22.05;;;14.77;;
53618;SDS011;68717;53.040;18.488;2023-09-19T01:04:03;20.77;;;14.93;;
53618;SDS011;68717;53.040;18.488;2023-09-19T01:04:16;19.80;;;14.95;;
53618;SDS011;68717;53.040;18.488;2023-09-19T01:04:30;20.23;;;15.15;;
53618;SDS011;68717;53.040;18.488;2023-09-19T01:04:43;20.20;;;15.40;;
53618;SDS011;68717;53.040;18.488;2023-09-19T01:04:57;20.15;;;15.27;;
53618;SDS011;68717;53.040;18.488;2023-09-19T01:05:10;22.23;;;15.23;;
53618;SDS011;68717;53.040;18.488;2023-09-19T01:05:24;21.95;;;15.00;;
53618;SDS011;68717;53.040;18.488;2023-09-19T01:05:37;20.65;;;14.68;;
53618;SDS011;68717;53.040;18.488;2023-09-19T01:05:50;20.80;;;14.75;;
53618;SDS011;68717;53.040;18.488;2023-09-19T01:06:04;22.05;;;14.73;;
53618;SDS011;68717;53.040;18.488;2023-09-19T01:06:17;20.92;;;14.40;;
53618;SDS011;68717;53.040;18.488;2023-09-19T01:06:30;20.00;;;14.38;;
53618;SDS011;68717;53.040;18.488;2023-09-19T01:06:43;20.00;;;14.57;;
53618;SDS011;68717;53.040;18.488;2023-09-19T01:06:57;19.45;;;14.73;;
53618;SDS011;68717;53.040;18.488;2023-09-19T01:07:10;20.33;;;15.10;;
53618;SDS011;68717;53.040;18.488;2023-09-19T01:07:23;20.48;;;14.98;;
53618;SDS011;68717;53.040;18.488;2023-09-19T01:07:36;21.08;;;14.68;;
53618;SDS011;68717;53.040;18.488;2023-09-19T01:07:52;20.45;;;14.43;;
53618;SDS011;68717;53.040;18.488;2023-09-19T01:08:05;21.25;;;14.48;;
53618;SDS011;68717;53.040;18.488;2023-09-19T01:08:18;21.63;;;14.48;;
53618;SDS011;68717;53.040;18.488;2023-09-19T01:08:31;21.17;;;14.65;;
53618;SDS011;68717;53.040;18.488;2023-09-19T01:08:44;21.70;;;14.85;;
53618;SDS011;68717;53.040;18.488;2023-09-19T01:08:56;21.88;;;14.80;;
53618;SDS011;68717;53.040;18.488;2023-09-19T01:09:09;20.58;;;14.52;;
53618;SDS011;68717;53.040;18.488;2023-09-19T01:09:23;19.05;;;14.55;;
53618;SDS011;68717;53.040;18.488;2023-09-19T01:09:35;20.02;;;14.88;;
53618;SDS011;68717;53.040;18.488;2023-09-19T01:09:50;20.77;;;14.50;;
53618;SDS011;68717;53.040;18.488;2023-09-19T01:10:05;20.75;;;14.40;;
53618;SDS011;68717;53.040;18.488;2023-09-19T01:10:22;19.60;;;14.52;;
53618;SDS011;68717;53.040;18.488;2023-09-19T01:10:36;21.10;;;14.30;;
53618;SDS011;68717;53.040;18.488;2023-09-19T01:10:55;21.90;;;14.45;;
53618;SDS011;68717;53.040;18.488;2023-09-19T01:11:23;20.70;;;14.93;;
53618;SDS011;68717;53.040;18.488;2023-09-19T01:11:47;21.15;;;14.45;;
53618;SDS011;68717;53.040;18.488;2023-09-19T01:12:02;20.15;;;14.05;;
53618;SDS011;68717;53.040;18.488;2023-09-19T01:12:22;21.70;;;14.35;;
53618;SDS011;68717;53.040;18.488;2023-09-19T01:12:45;20.17;;;15.32;;
53618;SDS011;68717;53.040;18.488;2023-09-19T01:13:05;20.17;;;15.10;;
53618;SDS011;68717;53.040;18.488;2023-09-19T01:13:26;20.92;;;15.25;;
53618;SDS011;68717;53.040;18.488;2023-09-19T01:13:47;21.17;;;14.73;;
53618;SDS011;68717;53.040;18.488;2023-09-19T01:14:13;20.48;;;14.40;;
53618;SDS011;68717;53.040;18.488;2023-09-19T01:14:34;20.52;;;14.95;;
53618;SDS011;68717;53.040;18.488;2023-09-19T01:14:55;19.45;;;14.68;;
53618;SDS011;68717;53.040;18.488;2023-09-19T01:15:15;21.60;;;14.82;;
53618;SDS011;68717;53.040;18.488;2023-09-19T01:15:39;21.15;;;14.48;;
53618;SDS011;68717;53.040;18.488;2023-09-19T01:16:05;18.38;;;14.20;;
53618;SDS011;68717;53.040;18.488;2023-09-19T01:16:30;18.67;;;13.90;;
53618;SDS011;68717;53.040;18.488;2023-09-19T01:16:50;20.85;;;14.48;;
53618;SDS011;68717;53.040;18.488;2023-09-19T01:17:14;21.33;;;14.40;;
53618;SDS011;68717;53.040;18.488;2023-09-19T01:17:38;21.13;;;14.57;;
53618;SDS011;68717;53.040;18.488;2023-09-19T01:18:00;21.90;;;15.15;;
53618;SDS011;68717;53.040;18.488;2023-09-19T01:18:27;20.60;;;14.85;;
53618;SDS011;68717;53.040;18.488;2023-09-19T01:18:49;21.95;;;14.20;;
53618;SDS011;68717;53.040;18.488;2023-09-19T01:19:15;22.55;;;14.35;;
53618;SDS011;68717;53.040;18.488;2023-09-19T01:20:03;19.27;;;14.40;;
53618;SDS011;68717;53.040;18.488;2023-09-19T01:20:40;21.13;;;15.00;;
53618;SDS011;68717;53.040;18.488;2023-09-19T01:21:03;20.90;;;14.73;;
53618;SDS011;68717;53.040;18.488;2023-09-19T01:21:22;19.77;;;14.60;;
53618;SDS011;68717;53.040;18.488;2023-09-19T01:21:42;20.30;;;14.60;;
53618;SDS011;68717;53.040;18.488;2023-09-19T01:22:05;21.50;;;14.80;;
53618;SDS011;68717;53.040;18.488;2023-09-19T01:22:26;21.25;;;15.13;;
53618;SDS011;68717;53.040;18.488;2023-09-19T01:22:53;20.20;;;14.77;;
53618;SDS011;68717;53.040;18.488;2023-09-19T01:23:16;20.30;;;14.98;;
53618;SDS011;68717;53.040;18.488;2023-09-19T01:23:37;20.58;;;15.25;;
53618;SDS011;68717;53.040;18.488;2023-09-19T01:25:14;21.05;;;15.00;;
53618;SDS011;68717;53.040;18.488;2023-09-19T01:26:37;19.25;;;14.07;;
53618;SDS011;68717;53.040;18.488;2023-09-19T01:27:14;21.40;;;15.02;;
53618;SDS011;68717;53.040;18.488;2023-09-19T01:27:46;20.73;;;15.13;;
53618;SDS011;68717;53.040;18.488;2023-09-19T01:28:20;24.70;;;15.20;;
53618;SDS011;68717;53.040;18.488;2023-09-19T01:28:51;20.80;;;15.05;;
53618;SDS011;68717;53.040;18.488;2023-09-19T01:29:13;25.17;;;14.90;;
53618;SDS011;68717;53.040;18.488;2023-09-19T01:29:42;21.15;;;15.30;;
53618;SDS011;68717;53.040;18.488;2023-09-19T01:30:06;20.63;;;15.13;;
53618;SDS011;68717;53.040;18.488;2023-09-19T01:30:21;21.63;;;14.73;;
53618;SDS011;68717;53.040;18.488;2023-09-19T01:30:40;19.25;;;14.80;;